Relevés horaires Beauvechain (Belgique)


Relevés horaires à Beauvechain - Lundi 22 Avr. 2019
Heure UTC1 Température [°C] Vent [km/h] Hum. [%] Pres.4 [hPa] Visi. [Km] Nébu. [octa] Préc.5 [mm] Cond.
2m. Res. Ros. Dir.2 Vit. Moy. Raf.3
23:00 14.8 14.8 3.6 E 5.6 -- 11.1 47 1002(-1.3/3h) 20 -- -- --
22:00 16.0 16.0 3.3 ENE 3.7 -- 7.4 43 1002.3(-0.7/3h) 20 -- -- --
21:00 16.6 16.6 3.1 E 3.7 -- 9.3 40 1002.7(-0.3/3h) 20 -- -- --
20:00 17.7 17.7 2.8 E 3.7 -- 7.4 37 1003.2(-0.1/3h) 20 -- -- --
19:00 19.1 19.1 2.5 ENE 5.6 -- 9.3 33 1003(-0.8/3h) 20 -- -- --
18:00 19.4 19.4 5.1 ENE 5.6 -- 16.7 39 1003(-1.3/3h) 20 -- -- --
17:00 21.7 21.7 4.3 ENE 7.4 -- 14.8 32 1003.1(-1.8/3h) 20 -- -- --
16:00 22.3 22.3 4.4 ENE 11.1 -- 16.7 31 1003.6(-2.2/3h) 20 -- -- --
15:00 23.7 23.7 3.6 ENE 7.4 -- 14.8 27 1004.1(-2.2/3h) 20 -- -- --
14:00 23.7 23.7 1.8 E 7.4 -- 14.8 24 1004.8(-2.3/3h) 13 -- -- --
13:00 24.2 24.2 1.3 E 9.3 -- 13.0 22 1005.7(-2.3/3h) 15 -- -- --
12:00 23.2 23.2 -0.5 ESE 7.4 -- 16.7 21 1006.5(-2.3/3h) 17 -- -- --
11:00 22.6 22.6 -1.3 ESE 7.4 -- 16.7 20 1007.2(-1.9/3h) 20 -- -- --
10:00 21.8 21.8 2.2 ESE 5.6 -- 11.1 27 1008.2(-1.4/3h) 20 -- -- --
09:00 19.2 19.2 3.8 E 5.6 -- 9.3 36 1009.1(-1.0/3h) 20 -- -- --
08:00 16.3 16.3 5.4 E 7.4 -- 9.3 48 1009.6(-0.8/3h) 19 -- -- --
07:00 15.1 15.1 2.3 E 3.7 -- 7.4 42 1010(-0.7/3h) 19 -- -- --
06:00 11.3 11.3 3.9 NNO 3.7 -- 7.4 60 1010.5(-1.1/3h) 20 -- -- --
05:00 11.8 11.8 1.9 NNO 1.9 -- 1.9 51 1010.7(-1.7/3h) 20 -- -- --
04:00 12.2 12.2 1.8 NNO 1.9 -- 7.4 49 1011(-1.9/3h) 20 -- -- --
03:00 14.7 14.7 0.5 NNO 1.9 -- 5.6 38 1011.5(-1.8/3h) 20 -- -- --
02:00 14.4 14.4 1.7 ESE 3.7 -- 5.6 42 1012.2(-1.8/3h) 20 -- -- --
01:00 13.6 13.6 1.9 E 3.7 -- 5.6 45 1012.7(-1.7/3h) 20 -- -- --
00:00 14.6 14.6 1.8 E 3.7 -- 7.4 42 1013.5(-1.4/3h) 20 -- -- --

1 Coordinated Universal Time. Actuellement il est 06:00 locale et 05:00 UTC.

2 Le vent souffle depuis la direction indiquée vers la direction oposée.

3 Les rafales max. sont disponible 40 min après l'heure du relevé.

4 Pour les stations d'altitude (plus de 600m) le géopotentiel du niveau le plus proche de la pression obligatoire est indiqué.

5 Les stations disposant d'un diffuseur peuvent indiquer "trace". Cela signifie que des précipitations ont touchés le sol mais que la quantité est inférieure à 0.1 mm.

Récapitulatif de la journée
Température [°C] Vent [km/h] Ensoleillement4 [h] Precipitations totale5 [mm] Pression [Hpa]
Min1 Max.2 Moy.3 Max. Min Max.
10.7 24.3 0 16.7 0 h 0 min 0 1002.0 1013.5

1 Température minimale relevée entre 18:00 UTC la veille et 18:00 UTC le jour donné.

2 Température maximale relevée entre 06:00 UTC le jour donné et 06:00 UTC le lendemain.

3 Vent moyen de la journée basé sur les relevés horaires.

4 Ensoleillement en heures relevé entre 06:00 UTC la veille et 06:00 UTC le jour donné.

5 Précipitations totales tombées entre 06:00 UTC la jour donné et 06:00 UTC le lendemain.

Graphiques horaires